createdAt,value
2022-08-10T00:01:38.084Z,5.63
2022-08-10T00:07:08.444Z,5.60
2022-08-10T00:12:54.317Z,5.05
2022-08-10T00:18:35.947Z,5.65
2022-08-10T00:24:07.125Z,5.93
2022-08-10T00:29:36.246Z,5.75
2022-08-10T00:35:05.678Z,5.40
2022-08-10T00:40:37.789Z,5.60
2022-08-10T00:46:07.002Z,6.00
2022-08-10T00:51:40.425Z,5.70
2022-08-10T00:57:18.814Z,6.00
2022-08-10T01:02:47.821Z,5.97
2022-08-10T01:08:31.597Z,6.00
2022-08-10T01:14:10.649Z,5.78
2022-08-10T01:19:54.062Z,5.78
2022-08-10T01:26:10.540Z,6.68
2022-08-10T01:31:35.148Z,5.93
2022-08-10T01:37:08.130Z,6.78
2022-08-10T01:42:38.613Z,6.70
2022-08-10T01:48:32.189Z,6.45
2022-08-10T01:54:04.068Z,6.60
2022-08-10T01:59:40.397Z,6.53
2022-08-10T02:05:12.868Z,7.35
2022-08-10T02:10:46.423Z,7.78
2022-08-10T02:16:18.063Z,7.32
2022-08-10T02:22:34.995Z,8.18
2022-08-10T02:27:41.824Z,7.53
2022-08-10T02:33:11.837Z,8.27
2022-08-10T02:38:59.205Z,9.40
2022-08-10T02:45:19.058Z,8.25
2022-08-10T02:50:29.530Z,12.07
2022-08-10T02:56:06.113Z,8.70
2022-08-10T03:01:39.233Z,9.10
2022-08-10T03:07:12.852Z,8.48
2022-08-10T03:12:44.421Z,8.27
2022-08-10T03:18:15.478Z,9.35
2022-08-10T03:23:46.547Z,8.85
2022-08-10T03:29:27.704Z,8.48
2022-08-10T03:34:58.216Z,11.75
2022-08-10T03:40:44.908Z,9.63
2022-08-10T03:46:18.300Z,9.45
2022-08-10T03:51:49.281Z,9.13
2022-08-10T03:57:18.177Z,9.57
2022-08-10T04:08:19.275Z,8.52
2022-08-10T04:13:47.906Z,8.75
2022-08-10T04:19:19.988Z,8.82
2022-08-10T04:24:52.993Z,9.10
2022-08-10T04:30:22.134Z,10.88
2022-08-10T04:35:53.577Z,8.55
2022-08-10T04:41:23.547Z,9.50
2022-08-10T04:46:58.211Z,8.95
2022-08-10T04:52:30.073Z,9.27
2022-08-10T04:57:59.063Z,9.75
2022-08-10T05:03:28.370Z,10.57
2022-08-10T05:08:59.478Z,10.27
2022-08-10T05:14:29.190Z,10.60
2022-08-10T05:20:04.954Z,10.40
2022-08-10T05:25:38.012Z,10.27
2022-08-10T05:31:07.082Z,10.15
2022-08-10T05:36:35.866Z,10.55
2022-08-10T05:42:06.823Z,10.75
2022-08-10T05:48:55.304Z,10.80
2022-08-10T05:53:59.871Z,11.15
2022-08-10T06:05:08.601Z,11.52
2022-08-10T06:12:23.187Z,11.25
2022-08-10T06:16:29.948Z,10.73
2022-08-10T06:22:01.718Z,9.98
2022-08-10T06:27:34.824Z,9.70
2022-08-10T06:33:08.246Z,9.23
2022-08-10T06:38:40.706Z,9.77
2022-08-10T06:44:12.525Z,9.80
2022-08-10T06:49:46.374Z,9.73
2022-08-10T06:55:18.675Z,9.27
2022-08-10T07:00:48.892Z,8.32
2022-08-10T07:06:21.761Z,8.00
2022-08-10T07:11:53.121Z,8.48
2022-08-10T07:17:24.506Z,8.35
2022-08-10T07:23:01.437Z,8.93
2022-08-10T07:28:48.314Z,10.18
2022-08-10T07:34:29.238Z,9.55
2022-08-10T07:40:04.596Z,10.15
2022-08-10T07:45:36.632Z,9.57
2022-08-10T07:51:08.565Z,8.38
2022-08-10T07:56:49.027Z,8.32
2022-08-10T08:02:24.879Z,8.60
2022-08-10T08:07:57.424Z,9.38
2022-08-10T08:13:29.642Z,8.27
2022-08-10T08:19:26.789Z,9.15
2022-08-10T08:24:52.496Z,7.88
2022-08-10T08:30:27.047Z,8.25
2022-08-10T08:35:58.604Z,7.45
2022-08-10T08:42:00.280Z,9.02
2022-08-10T08:48:04.088Z,8.80
2022-08-10T08:54:02.314Z,8.18
2022-08-10T08:59:53.122Z,6.90
2022-08-10T09:05:58.442Z,6.20
2022-08-10T09:11:39.740Z,6.33
2022-08-10T09:17:18.112Z,8.63
2022-08-10T09:22:57.937Z,7.50
2022-08-10T09:28:32.106Z,6.18
2022-08-10T09:36:23.686Z,7.28
2022-08-10T09:40:48.540Z,6.47
2022-08-10T09:46:06.175Z,6.70
2022-08-10T09:51:47.984Z,5.82
2022-08-10T09:57:44.444Z,6.07
2022-08-10T10:03:25.822Z,6.38
2022-08-10T10:09:10.707Z,5.68
2022-08-10T10:15:24.929Z,6.30
2022-08-10T10:21:06.570Z,5.70
2022-08-10T10:26:43.894Z,6.15
2022-08-10T10:32:19.829Z,5.25
2022-08-10T10:38:01.779Z,5.53
2022-08-10T10:43:45.999Z,6.80
2022-08-10T10:49:28.140Z,6.97
2022-08-10T10:55:06.073Z,7.32
2022-08-10T11:00:43.571Z,5.40
2022-08-10T11:06:39.730Z,6.75
2022-08-10T11:12:19.718Z,6.80
2022-08-10T11:18:00.376Z,5.68
2022-08-10T11:23:40.403Z,6.72
2022-08-10T11:29:17.764Z,6.35
2022-08-10T11:40:50.392Z,14.15
2022-08-10T11:46:28.656Z,6.10
2022-08-10T11:52:01.765Z,5.65
2022-08-10T11:57:53.897Z,5.93
2022-08-10T12:03:23.722Z,6.00
2022-08-10T12:10:05.375Z,6.32
2022-08-10T12:14:51.622Z,5.07
2022-08-10T12:20:28.797Z,5.20
2022-08-10T12:26:07.568Z,5.60
2022-08-10T12:31:44.243Z,4.40
2022-08-10T12:37:27.966Z,4.38
2022-08-10T12:43:12.807Z,5.22
2022-08-10T12:53:47.655Z,6.88
2022-08-10T12:59:17.949Z,5.32
2022-08-10T13:04:50.617Z,6.15
2022-08-10T13:10:49.779Z,6.35
2022-08-10T13:16:22.323Z,7.32
2022-08-10T13:21:53.117Z,6.55
2022-08-10T13:28:01.159Z,6.75
2022-08-10T13:34:41.632Z,6.78
2022-08-10T13:39:20.315Z,6.20
2022-08-10T13:44:54.873Z,7.40
2022-08-10T13:50:33.483Z,8.35
2022-08-10T13:56:05.424Z,8.43
2022-08-10T14:01:36.901Z,8.30
2022-08-10T14:07:06.859Z,9.52
2022-08-10T14:12:38.723Z,7.95
2022-08-10T14:18:10.518Z,8.55
2022-08-10T14:23:52.083Z,8.68
2022-08-10T14:29:25.282Z,8.85
2022-08-10T14:36:16.406Z,7.43
2022-08-10T14:40:54.605Z,7.30
2022-08-10T14:46:28.226Z,7.78
2022-08-10T14:52:04.330Z,7.28
2022-08-10T14:58:19.246Z,8.65
2022-08-10T15:03:58.788Z,8.13
2022-08-10T15:09:20.982Z,7.30
2022-08-10T15:14:53.491Z,8.23
2022-08-10T15:20:26.154Z,7.53
2022-08-10T15:25:59.393Z,7.05
2022-08-10T15:31:32.299Z,8.00
2022-08-10T15:37:39.655Z,7.75
2022-08-10T15:43:25.169Z,7.75
2022-08-10T15:49:00.934Z,7.70
2022-08-10T15:54:33.205Z,8.57
2022-08-10T16:00:10.048Z,7.75
2022-08-10T16:06:00.868Z,7.45
2022-08-10T16:11:42.097Z,10.05
2022-08-10T16:17:15.326Z,7.72
2022-08-10T16:22:44.463Z,7.88
2022-08-10T16:28:23.233Z,7.72
2022-08-10T16:33:57.672Z,8.18
2022-08-10T16:39:59.172Z,7.68
2022-08-10T16:45:21.864Z,7.28
2022-08-10T16:50:55.979Z,7.45
2022-08-10T16:56:31.095Z,7.07
2022-08-10T17:02:02.658Z,6.55
2022-08-10T17:07:34.705Z,6.45
2022-08-10T17:13:06.299Z,6.07
2022-08-10T17:18:39.448Z,7.10
2022-08-10T17:24:11.446Z,5.88
2022-08-10T17:29:57.879Z,6.57
2022-08-10T17:35:36.427Z,6.30
2022-08-10T17:41:12.513Z,7.43
2022-08-10T17:46:45.212Z,6.10
2022-08-10T17:52:21.930Z,6.72
2022-08-10T17:58:01.772Z,5.82
2022-08-10T18:03:36.846Z,6.43
2022-08-10T18:09:12.041Z,6.47
2022-08-10T18:14:46.314Z,6.63
2022-08-10T18:20:20.126Z,6.57
2022-08-10T18:25:49.607Z,5.47
2022-08-10T18:31:21.178Z,5.97
2022-08-10T18:36:52.367Z,6.60
2022-08-10T18:42:27.732Z,5.65
2022-08-10T18:48:02.644Z,6.78
2022-08-10T18:53:35.740Z,6.60
2022-08-10T18:59:17.619Z,6.43
2022-08-10T19:05:04.721Z,6.40
2022-08-10T19:10:58.739Z,6.00
2022-08-10T19:16:36.888Z,6.18
2022-08-10T19:22:10.233Z,5.80
2022-08-10T19:27:57.721Z,5.28
2022-08-10T19:33:37.243Z,6.28
2022-08-10T19:39:19.443Z,6.37
2022-08-10T19:44:59.040Z,5.65
2022-08-10T19:50:33.970Z,7.18
2022-08-10T19:56:33.239Z,6.82
2022-08-10T20:02:04.881Z,5.63
2022-08-10T20:07:43.836Z,5.93
2022-08-10T20:13:22.535Z,6.00
2022-08-10T20:18:58.930Z,6.50
2022-08-10T20:24:31.310Z,7.82
2022-08-10T20:30:05.820Z,5.22
2022-08-10T20:35:48.507Z,10.90
2022-08-10T20:41:25.522Z,7.25
2022-08-10T20:47:03.124Z,5.22
2022-08-10T20:52:34.445Z,5.23
2022-08-10T20:58:26.439Z,5.43
2022-08-10T21:04:13.230Z,5.32
2022-08-10T21:09:56.544Z,4.90
2022-08-10T21:15:41.794Z,5.18
2022-08-10T21:21:41.935Z,5.45
2022-08-10T21:33:29.964Z,5.55
2022-08-10T21:39:11.136Z,5.30
2022-08-10T21:45:09.109Z,5.25
2022-08-10T21:51:06.074Z,5.70
2022-08-10T21:56:59.701Z,5.53
2022-08-10T22:02:50.982Z,5.10
2022-08-10T22:08:44.363Z,4.90
2022-08-10T22:14:42.252Z,5.28
2022-08-10T22:20:33.413Z,4.93
2022-08-10T22:26:28.931Z,5.22
2022-08-10T22:31:29.220Z,5.40
2022-08-10T22:32:25.877Z,5.40
2022-08-10T22:38:23.373Z,4.93
2022-08-10T22:44:16.133Z,5.00
2022-08-10T22:49:51.474Z,5.25
2022-08-10T22:55:43.241Z,5.68
2022-08-10T23:01:38.181Z,5.70
2022-08-10T23:07:21.260Z,5.13
2022-08-10T23:12:57.519Z,4.97
2022-08-10T23:18:51.489Z,4.95
2022-08-10T23:24:30.021Z,5.97
2022-08-10T23:30:10.237Z,5.00
2022-08-10T23:36:31.497Z,5.35
2022-08-10T23:41:40.122Z,5.03
2022-08-10T23:47:10.414Z,5.47
2022-08-10T23:52:40.281Z,5.13
2022-08-10T23:58:31.893Z,5.30
